sensor_id;sensor_type;location;lat;lon;timestamp;P1;durP1;ratioP1;P2;durP2;ratioP2
10248;SDS011;5169;50.560;9.714;2023-04-03T00:01:40;4.27;;;1.33;;
10248;SDS011;5169;50.560;9.714;2023-04-03T00:04:09;2.83;;;1.17;;
10248;SDS011;5169;50.560;9.714;2023-04-03T00:06:37;3.03;;;1.10;;
10248;SDS011;5169;50.560;9.714;2023-04-03T00:09:02;4.03;;;1.70;;
10248;SDS011;5169;50.560;9.714;2023-04-03T00:11:28;2.53;;;1.07;;
10248;SDS011;5169;50.560;9.714;2023-04-03T00:13:53;3.37;;;1.00;;
10248;SDS011;5169;50.560;9.714;2023-04-03T00:16:21;4.33;;;1.23;;
10248;SDS011;5169;50.560;9.714;2023-04-03T00:18:47;5.63;;;1.37;;
10248;SDS011;5169;50.560;9.714;2023-04-03T00:21:13;3.07;;;1.17;;
10248;SDS011;5169;50.560;9.714;2023-04-03T00:23:39;4.83;;;1.23;;
10248;SDS011;5169;50.560;9.714;2023-04-03T00:26:05;4.07;;;1.60;;
10248;SDS011;5169;50.560;9.714;2023-04-03T00:28:32;3.67;;;1.17;;
10248;SDS011;5169;50.560;9.714;2023-04-03T00:30:58;2.17;;;0.93;;
10248;SDS011;5169;50.560;9.714;2023-04-03T00:33:24;3.23;;;1.20;;
10248;SDS011;5169;50.560;9.714;2023-04-03T00:35:50;2.50;;;1.20;;
10248;SDS011;5169;50.560;9.714;2023-04-03T00:38:16;4.33;;;1.10;;
10248;SDS011;5169;50.560;9.714;2023-04-03T00:40:45;2.57;;;1.40;;
10248;SDS011;5169;50.560;9.714;2023-04-03T00:43:13;2.73;;;1.10;;
10248;SDS011;5169;50.560;9.714;2023-04-03T00:45:40;3.47;;;1.47;;
10248;SDS011;5169;50.560;9.714;2023-04-03T00:48:11;3.67;;;1.40;;
10248;SDS011;5169;50.560;9.714;2023-04-03T00:50:46;2.70;;;1.20;;
10248;SDS011;5169;50.560;9.714;2023-04-03T00:53:19;3.07;;;1.10;;
10248;SDS011;5169;50.560;9.714;2023-04-03T00:55:52;3.97;;;1.43;;
10248;SDS011;5169;50.560;9.714;2023-04-03T00:58:20;3.67;;;1.17;;
10248;SDS011;5169;50.560;9.714;2023-04-03T01:00:55;3.13;;;1.23;;
10248;SDS011;5169;50.560;9.714;2023-04-03T01:03:23;4.27;;;1.47;;
10248;SDS011;5169;50.560;9.714;2023-04-03T01:05:50;4.50;;;1.20;;
10248;SDS011;5169;50.560;9.714;2023-04-03T01:08:18;3.17;;;1.20;;
10248;SDS011;5169;50.560;9.714;2023-04-03T01:10:43;3.33;;;1.20;;
10248;SDS011;5169;50.560;9.714;2023-04-03T01:13:23;4.50;;;1.17;;
10248;SDS011;5169;50.560;9.714;2023-04-03T01:15:49;3.33;;;1.33;;
10248;SDS011;5169;50.560;9.714;2023-04-03T01:18:19;3.63;;;1.27;;
10248;SDS011;5169;50.560;9.714;2023-04-03T01:23:41;1.87;;;1.00;;
10248;SDS011;5169;50.560;9.714;2023-04-03T01:26:13;3.47;;;1.13;;
10248;SDS011;5169;50.560;9.714;2023-04-03T01:28:39;2.23;;;1.00;;
10248;SDS011;5169;50.560;9.714;2023-04-03T01:31:22;2.80;;;1.30;;
10248;SDS011;5169;50.560;9.714;2023-04-03T01:33:55;3.33;;;1.03;;
10248;SDS011;5169;50.560;9.714;2023-04-03T01:36:24;3.50;;;1.47;;
10248;SDS011;5169;50.560;9.714;2023-04-03T01:38:53;4.07;;;1.20;;
10248;SDS011;5169;50.560;9.714;2023-04-03T01:41:19;2.00;;;1.23;;
10248;SDS011;5169;50.560;9.714;2023-04-03T01:43:48;4.33;;;1.40;;
10248;SDS011;5169;50.560;9.714;2023-04-03T01:46:17;5.13;;;1.40;;
10248;SDS011;5169;50.560;9.714;2023-04-03T01:48:43;2.63;;;1.23;;
10248;SDS011;5169;50.560;9.714;2023-04-03T01:51:09;4.97;;;1.23;;
10248;SDS011;5169;50.560;9.714;2023-04-03T01:53:35;2.97;;;1.30;;
10248;SDS011;5169;50.560;9.714;2023-04-03T01:56:03;3.37;;;1.40;;
10248;SDS011;5169;50.560;9.714;2023-04-03T01:58:29;3.27;;;1.77;;
10248;SDS011;5169;50.560;9.714;2023-04-03T02:00:55;2.53;;;1.07;;
10248;SDS011;5169;50.560;9.714;2023-04-03T02:03:21;3.17;;;1.30;;
10248;SDS011;5169;50.560;9.714;2023-04-03T02:05:47;3.80;;;1.30;;
10248;SDS011;5169;50.560;9.714;2023-04-03T02:08:12;4.73;;;1.20;;
10248;SDS011;5169;50.560;9.714;2023-04-03T02:10:38;4.57;;;1.40;;
10248;SDS011;5169;50.560;9.714;2023-04-03T02:13:04;3.23;;;1.23;;
10248;SDS011;5169;50.560;9.714;2023-04-03T02:15:33;2.63;;;1.13;;
10248;SDS011;5169;50.560;9.714;2023-04-03T02:17:58;3.63;;;1.23;;
10248;SDS011;5169;50.560;9.714;2023-04-03T02:20:24;3.70;;;1.13;;
10248;SDS011;5169;50.560;9.714;2023-04-03T02:22:50;2.03;;;1.10;;
10248;SDS011;5169;50.560;9.714;2023-04-03T02:25:15;3.27;;;1.13;;
10248;SDS011;5169;50.560;9.714;2023-04-03T02:27:42;1.60;;;1.10;;
10248;SDS011;5169;50.560;9.714;2023-04-03T02:30:08;3.50;;;1.27;;
10248;SDS011;5169;50.560;9.714;2023-04-03T02:32:35;2.23;;;1.10;;
10248;SDS011;5169;50.560;9.714;2023-04-03T02:35:01;4.80;;;1.30;;
10248;SDS011;5169;50.560;9.714;2023-04-03T02:37:31;1.70;;;0.97;;
10248;SDS011;5169;50.560;9.714;2023-04-03T02:39:56;3.30;;;1.40;;
10248;SDS011;5169;50.560;9.714;2023-04-03T02:42:24;3.80;;;1.27;;
10248;SDS011;5169;50.560;9.714;2023-04-03T02:44:50;2.50;;;1.13;;
10248;SDS011;5169;50.560;9.714;2023-04-03T02:47:15;3.10;;;1.17;;
10248;SDS011;5169;50.560;9.714;2023-04-03T02:49:41;4.23;;;1.30;;
10248;SDS011;5169;50.560;9.714;2023-04-03T02:52:09;2.83;;;1.10;;
10248;SDS011;5169;50.560;9.714;2023-04-03T02:54:35;2.13;;;1.10;;
10248;SDS011;5169;50.560;9.714;2023-04-03T02:57:03;1.97;;;1.10;;
10248;SDS011;5169;50.560;9.714;2023-04-03T02:59:28;3.63;;;1.20;;
10248;SDS011;5169;50.560;9.714;2023-04-03T03:01:54;4.83;;;1.43;;
10248;SDS011;5169;50.560;9.714;2023-04-03T03:04:20;2.93;;;1.37;;
10248;SDS011;5169;50.560;9.714;2023-04-03T03:06:48;2.53;;;1.40;;
10248;SDS011;5169;50.560;9.714;2023-04-03T03:09:17;2.63;;;1.50;;
10248;SDS011;5169;50.560;9.714;2023-04-03T03:11:45;2.40;;;1.73;;
10248;SDS011;5169;50.560;9.714;2023-04-03T03:14:13;3.57;;;1.43;;
10248;SDS011;5169;50.560;9.714;2023-04-03T03:16:38;3.57;;;1.93;;
10248;SDS011;5169;50.560;9.714;2023-04-03T03:19:04;4.00;;;1.40;;
10248;SDS011;5169;50.560;9.714;2023-04-03T03:21:30;5.47;;;1.67;;
10248;SDS011;5169;50.560;9.714;2023-04-03T03:23:57;4.77;;;1.50;;
10248;SDS011;5169;50.560;9.714;2023-04-03T03:26:23;3.60;;;1.67;;
10248;SDS011;5169;50.560;9.714;2023-04-03T03:28:49;4.40;;;2.00;;
10248;SDS011;5169;50.560;9.714;2023-04-03T03:31:14;3.27;;;1.93;;
10248;SDS011;5169;50.560;9.714;2023-04-03T03:33:40;2.53;;;1.30;;
10248;SDS011;5169;50.560;9.714;2023-04-03T03:36:06;3.33;;;1.60;;
10248;SDS011;5169;50.560;9.714;2023-04-03T03:38:34;2.60;;;1.40;;
10248;SDS011;5169;50.560;9.714;2023-04-03T03:41:02;3.53;;;1.70;;
10248;SDS011;5169;50.560;9.714;2023-04-03T03:43:30;3.93;;;1.60;;
10248;SDS011;5169;50.560;9.714;2023-04-03T03:45:58;4.43;;;1.53;;
10248;SDS011;5169;50.560;9.714;2023-04-03T03:48:26;5.33;;;1.47;;
10248;SDS011;5169;50.560;9.714;2023-04-03T03:50:54;2.93;;;1.50;;
10248;SDS011;5169;50.560;9.714;2023-04-03T03:53:20;4.60;;;1.57;;
10248;SDS011;5169;50.560;9.714;2023-04-03T03:55:45;4.33;;;1.50;;
10248;SDS011;5169;50.560;9.714;2023-04-03T03:58:11;4.23;;;1.60;;
10248;SDS011;5169;50.560;9.714;2023-04-03T04:00:36;4.50;;;1.73;;
10248;SDS011;5169;50.560;9.714;2023-04-03T04:03:04;5.27;;;1.63;;
10248;SDS011;5169;50.560;9.714;2023-04-03T04:05:30;3.67;;;1.80;;
10248;SDS011;5169;50.560;9.714;2023-04-03T04:07:56;3.67;;;1.90;;
10248;SDS011;5169;50.560;9.714;2023-04-03T04:10:24;5.77;;;2.00;;
10248;SDS011;5169;50.560;9.714;2023-04-03T04:12:52;5.17;;;1.73;;
10248;SDS011;5169;50.560;9.714;2023-04-03T04:15:17;4.27;;;2.20;;
10248;SDS011;5169;50.560;9.714;2023-04-03T04:17:43;5.33;;;2.07;;
10248;SDS011;5169;50.560;9.714;2023-04-03T04:20:11;3.40;;;1.60;;
10248;SDS011;5169;50.560;9.714;2023-04-03T04:22:37;4.23;;;1.90;;
10248;SDS011;5169;50.560;9.714;2023-04-03T04:25:04;5.43;;;2.07;;
10248;SDS011;5169;50.560;9.714;2023-04-03T04:27:31;4.07;;;2.00;;
10248;SDS011;5169;50.560;9.714;2023-04-03T04:29:57;4.53;;;1.90;;
10248;SDS011;5169;50.560;9.714;2023-04-03T04:32:22;3.80;;;2.03;;
10248;SDS011;5169;50.560;9.714;2023-04-03T04:34:48;4.93;;;2.13;;
10248;SDS011;5169;50.560;9.714;2023-04-03T04:37:16;4.00;;;2.10;;
10248;SDS011;5169;50.560;9.714;2023-04-03T04:39:41;4.17;;;1.80;;
10248;SDS011;5169;50.560;9.714;2023-04-03T04:42:07;4.70;;;1.93;;
10248;SDS011;5169;50.560;9.714;2023-04-03T04:44:37;3.83;;;2.23;;
10248;SDS011;5169;50.560;9.714;2023-04-03T04:47:03;4.90;;;2.00;;
10248;SDS011;5169;50.560;9.714;2023-04-03T04:49:31;4.63;;;1.97;;
10248;SDS011;5169;50.560;9.714;2023-04-03T04:51:57;5.47;;;1.90;;
10248;SDS011;5169;50.560;9.714;2023-04-03T04:54:24;3.47;;;1.80;;
10248;SDS011;5169;50.560;9.714;2023-04-03T04:56:50;3.37;;;1.70;;
10248;SDS011;5169;50.560;9.714;2023-04-03T04:59:18;4.17;;;1.80;;
10248;SDS011;5169;50.560;9.714;2023-04-03T05:01:43;9.20;;;8.47;;
10248;SDS011;5169;50.560;9.714;2023-04-03T05:04:09;9.97;;;8.93;;
10248;SDS011;5169;50.560;9.714;2023-04-03T05:06:37;6.97;;;6.50;;
10248;SDS011;5169;50.560;9.714;2023-04-03T05:09:03;7.03;;;6.33;;
10248;SDS011;5169;50.560;9.714;2023-04-03T05:11:33;5.73;;;5.23;;
10248;SDS011;5169;50.560;9.714;2023-04-03T05:14:01;5.93;;;4.13;;
10248;SDS011;5169;50.560;9.714;2023-04-03T05:16:30;4.37;;;3.53;;
10248;SDS011;5169;50.560;9.714;2023-04-03T05:18:56;5.60;;;4.63;;
10248;SDS011;5169;50.560;9.714;2023-04-03T05:21:24;4.30;;;3.93;;
10248;SDS011;5169;50.560;9.714;2023-04-03T05:23:51;3.67;;;2.93;;
10248;SDS011;5169;50.560;9.714;2023-04-03T05:26:19;3.87;;;2.90;;
10248;SDS011;5169;50.560;9.714;2023-04-03T05:28:46;5.87;;;5.33;;
10248;SDS011;5169;50.560;9.714;2023-04-03T05:31:12;6.90;;;6.43;;
10248;SDS011;5169;50.560;9.714;2023-04-03T05:33:38;6.37;;;5.80;;
10248;SDS011;5169;50.560;9.714;2023-04-03T05:36:04;6.67;;;6.03;;
10248;SDS011;5169;50.560;9.714;2023-04-03T05:38:32;7.33;;;6.83;;
10248;SDS011;5169;50.560;9.714;2023-04-03T05:40:58;7.50;;;7.00;;
10248;SDS011;5169;50.560;9.714;2023-04-03T05:43:24;7.27;;;6.67;;
10248;SDS011;5169;50.560;9.714;2023-04-03T05:45:50;6.30;;;4.73;;
10248;SDS011;5169;50.560;9.714;2023-04-03T05:48:17;7.20;;;6.57;;
10248;SDS011;5169;50.560;9.714;2023-04-03T05:50:45;6.13;;;5.63;;
10248;SDS011;5169;50.560;9.714;2023-04-03T05:53:14;5.57;;;5.07;;
10248;SDS011;5169;50.560;9.714;2023-04-03T05:55:45;4.90;;;4.60;;
10248;SDS011;5169;50.560;9.714;2023-04-03T05:58:13;6.03;;;5.43;;
10248;SDS011;5169;50.560;9.714;2023-04-03T06:00:39;6.27;;;5.03;;
10248;SDS011;5169;50.560;9.714;2023-04-03T06:03:05;4.63;;;4.23;;
10248;SDS011;5169;50.560;9.714;2023-04-03T06:05:35;5.83;;;5.43;;
10248;SDS011;5169;50.560;9.714;2023-04-03T06:08:01;6.77;;;5.20;;
10248;SDS011;5169;50.560;9.714;2023-04-03T06:10:28;5.63;;;3.23;;
10248;SDS011;5169;50.560;9.714;2023-04-03T06:12:54;4.87;;;4.40;;
10248;SDS011;5169;50.560;9.714;2023-04-03T06:15:21;3.80;;;3.50;;
10248;SDS011;5169;50.560;9.714;2023-04-03T06:17:47;3.77;;;3.47;;
10248;SDS011;5169;50.560;9.714;2023-04-03T06:20:12;4.97;;;3.83;;
10248;SDS011;5169;50.560;9.714;2023-04-03T06:22:38;3.00;;;2.33;;
10248;SDS011;5169;50.560;9.714;2023-04-03T06:25:04;3.30;;;2.93;;
10248;SDS011;5169;50.560;9.714;2023-04-03T06:27:31;4.83;;;2.97;;
10248;SDS011;5169;50.560;9.714;2023-04-03T06:29:56;5.27;;;2.43;;
10248;SDS011;5169;50.560;9.714;2023-04-03T06:32:22;3.57;;;2.33;;
10248;SDS011;5169;50.560;9.714;2023-04-03T06:34:50;2.73;;;1.87;;
10248;SDS011;5169;50.560;9.714;2023-04-03T06:37:20;3.30;;;2.10;;
10248;SDS011;5169;50.560;9.714;2023-04-03T06:39:47;3.90;;;2.00;;
10248;SDS011;5169;50.560;9.714;2023-04-03T06:42:13;2.90;;;1.67;;
10248;SDS011;5169;50.560;9.714;2023-04-03T06:44:39;3.17;;;1.43;;
10248;SDS011;5169;50.560;9.714;2023-04-03T06:47:05;4.53;;;2.20;;
10248;SDS011;5169;50.560;9.714;2023-04-03T06:49:33;3.33;;;1.57;;
10248;SDS011;5169;50.560;9.714;2023-04-03T06:51:59;2.83;;;1.63;;
10248;SDS011;5169;50.560;9.714;2023-04-03T06:54:25;2.90;;;1.60;;
10248;SDS011;5169;50.560;9.714;2023-04-03T06:56:50;6.37;;;1.93;;
10248;SDS011;5169;50.560;9.714;2023-04-03T06:59:18;4.80;;;2.20;;
10248;SDS011;5169;50.560;9.714;2023-04-03T07:01:44;2.90;;;2.20;;
10248;SDS011;5169;50.560;9.714;2023-04-03T07:04:10;4.03;;;1.80;;
10248;SDS011;5169;50.560;9.714;2023-04-03T07:06:36;1.70;;;1.50;;
10248;SDS011;5169;50.560;9.714;2023-04-03T07:09:02;7.60;;;2.73;;
10248;SDS011;5169;50.560;9.714;2023-04-03T07:11:30;3.83;;;2.40;;
10248;SDS011;5169;50.560;9.714;2023-04-03T07:13:58;3.20;;;2.10;;
10248;SDS011;5169;50.560;9.714;2023-04-03T07:16:26;5.87;;;2.50;;
10248;SDS011;5169;50.560;9.714;2023-04-03T07:18:54;2.43;;;2.10;;
10248;SDS011;5169;50.560;9.714;2023-04-03T07:21:22;3.33;;;2.43;;
10248;SDS011;5169;50.560;9.714;2023-04-03T07:23:47;2.77;;;2.27;;
10248;SDS011;5169;50.560;9.714;2023-04-03T07:26:13;4.57;;;2.43;;
10248;SDS011;5169;50.560;9.714;2023-04-03T07:28:39;4.33;;;2.47;;
10248;SDS011;5169;50.560;9.714;2023-04-03T07:31:06;4.43;;;2.63;;
10248;SDS011;5169;50.560;9.714;2023-04-03T07:33:36;3.03;;;2.23;;
10248;SDS011;5169;50.560;9.714;2023-04-03T07:36:03;3.40;;;1.80;;
10248;SDS011;5169;50.560;9.714;2023-04-03T07:38:29;3.83;;;2.30;;
10248;SDS011;5169;50.560;9.714;2023-04-03T07:40:55;2.57;;;1.90;;
10248;SDS011;5169;50.560;9.714;2023-04-03T07:43:25;2.53;;;2.27;;
10248;SDS011;5169;50.560;9.714;2023-04-03T07:45:53;2.83;;;1.80;;
10248;SDS011;5169;50.560;9.714;2023-04-03T07:48:23;2.70;;;2.03;;
10248;SDS011;5169;50.560;9.714;2023-04-03T07:50:50;3.03;;;2.10;;
10248;SDS011;5169;50.560;9.714;2023-04-03T07:53:16;5.40;;;2.00;;
10248;SDS011;5169;50.560;9.714;2023-04-03T07:55:42;3.77;;;2.10;;
10248;SDS011;5169;50.560;9.714;2023-04-03T07:58:17;3.73;;;1.87;;
10248;SDS011;5169;50.560;9.714;2023-04-03T08:00:43;3.77;;;1.70;;
10248;SDS011;5169;50.560;9.714;2023-04-03T08:03:10;2.73;;;2.10;;
10248;SDS011;5169;50.560;9.714;2023-04-03T08:05:40;3.37;;;1.93;;
10248;SDS011;5169;50.560;9.714;2023-04-03T08:08:07;2.23;;;2.00;;
10248;SDS011;5169;50.560;9.714;2023-04-03T08:10:36;3.40;;;2.10;;
10248;SDS011;5169;50.560;9.714;2023-04-03T08:13:02;3.50;;;2.00;;
10248;SDS011;5169;50.560;9.714;2023-04-03T08:15:29;4.30;;;2.17;;
10248;SDS011;5169;50.560;9.714;2023-04-03T08:17:55;5.17;;;2.23;;
10248;SDS011;5169;50.560;9.714;2023-04-03T08:20:21;2.77;;;2.07;;
10248;SDS011;5169;50.560;9.714;2023-04-03T08:22:47;4.03;;;1.97;;
10248;SDS011;5169;50.560;9.714;2023-04-03T08:25:13;3.07;;;2.33;;
10248;SDS011;5169;50.560;9.714;2023-04-03T08:27:39;3.40;;;2.23;;
10248;SDS011;5169;50.560;9.714;2023-04-03T08:30:05;2.40;;;1.50;;
10248;SDS011;5169;50.560;9.714;2023-04-03T08:32:32;5.33;;;2.70;;
10248;SDS011;5169;50.560;9.714;2023-04-03T08:34:59;4.67;;;2.57;;
10248;SDS011;5169;50.560;9.714;2023-04-03T08:37:25;4.63;;;2.33;;
10248;SDS011;5169;50.560;9.714;2023-04-03T08:39:51;4.53;;;2.20;;
10248;SDS011;5169;50.560;9.714;2023-04-03T08:50:17;3.37;;;2.20;;
10248;SDS011;5169;50.560;9.714;2023-04-03T08:52:53;3.37;;;2.07;;
10248;SDS011;5169;50.560;9.714;2023-04-03T08:55:27;3.80;;;1.93;;
10248;SDS011;5169;50.560;9.714;2023-04-03T08:58:10;4.40;;;2.67;;
10248;SDS011;5169;50.560;9.714;2023-04-03T09:00:47;2.50;;;2.00;;
10248;SDS011;5169;50.560;9.714;2023-04-03T09:03:18;4.90;;;2.57;;
10248;SDS011;5169;50.560;9.714;2023-04-03T09:06:11;2.50;;;1.80;;
10248;SDS011;5169;50.560;9.714;2023-04-03T09:08:44;4.60;;;1.90;;
10248;SDS011;5169;50.560;9.714;2023-04-03T09:16:54;2.00;;;1.80;;
10248;SDS011;5169;50.560;9.714;2023-04-03T09:22:07;3.27;;;2.97;;
10248;SDS011;5169;50.560;9.714;2023-04-03T09:24:36;2.50;;;2.30;;
10248;SDS011;5169;50.560;9.714;2023-04-03T09:27:06;1.53;;;1.43;;
10248;SDS011;5169;50.560;9.714;2023-04-03T09:29:35;4.83;;;1.83;;
10248;SDS011;5169;50.560;9.714;2023-04-03T09:38:14;2.53;;;1.47;;
10248;SDS011;5169;50.560;9.714;2023-04-03T09:40:42;3.07;;;1.80;;
10248;SDS011;5169;50.560;9.714;2023-04-03T09:43:31;1.80;;;1.70;;
10248;SDS011;5169;50.560;9.714;2023-04-03T09:46:28;1.57;;;1.20;;
10248;SDS011;5169;50.560;9.714;2023-04-03T09:48:59;1.73;;;1.53;;
10248;SDS011;5169;50.560;9.714;2023-04-03T09:51:28;3.20;;;1.73;;
10248;SDS011;5169;50.560;9.714;2023-04-03T09:53:55;2.73;;;1.30;;
10248;SDS011;5169;50.560;9.714;2023-04-03T09:56:27;3.00;;;1.57;;
10248;SDS011;5169;50.560;9.714;2023-04-03T10:01:33;1.80;;;1.63;;
10248;SDS011;5169;50.560;9.714;2023-04-03T10:06:36;1.47;;;1.30;;
10248;SDS011;5169;50.560;9.714;2023-04-03T10:11:57;2.77;;;1.97;;
10248;SDS011;5169;50.560;9.714;2023-04-03T10:14:29;3.50;;;1.43;;
10248;SDS011;5169;50.560;9.714;2023-04-03T10:24:44;3.93;;;1.80;;
10248;SDS011;5169;50.560;9.714;2023-04-03T10:30:33;3.67;;;2.10;;
10248;SDS011;5169;50.560;9.714;2023-04-03T10:38:54;3.23;;;1.90;;
10248;SDS011;5169;50.560;9.714;2023-04-03T10:41:39;5.83;;;2.40;;
10248;SDS011;5169;50.560;9.714;2023-04-03T10:44:30;4.37;;;2.30;;
10248;SDS011;5169;50.560;9.714;2023-04-03T10:47:14;3.57;;;2.30;;
10248;SDS011;5169;50.560;9.714;2023-04-03T10:57:54;3.30;;;2.00;;
10248;SDS011;5169;50.560;9.714;2023-04-03T11:01:05;3.43;;;2.07;;
10248;SDS011;5169;50.560;9.714;2023-04-03T11:03:15;3.33;;;1.87;;
10248;SDS011;5169;50.560;9.714;2023-04-03T11:06:04;3.63;;;1.70;;
10248;SDS011;5169;50.560;9.714;2023-04-03T11:11:20;2.30;;;1.43;;
10248;SDS011;5169;50.560;9.714;2023-04-03T11:14:01;2.13;;;1.50;;
10248;SDS011;5169;50.560;9.714;2023-04-03T11:16:31;2.93;;;1.47;;
10248;SDS011;5169;50.560;9.714;2023-04-03T11:19:03;2.47;;;1.40;;
10248;SDS011;5169;50.560;9.714;2023-04-03T11:21:43;1.30;;;1.00;;
10248;SDS011;5169;50.560;9.714;2023-04-03T11:24:19;2.33;;;1.30;;
10248;SDS011;5169;50.560;9.714;2023-04-03T11:26:55;2.67;;;1.40;;
10248;SDS011;5169;50.560;9.714;2023-04-03T11:29:24;1.43;;;1.00;;
10248;SDS011;5169;50.560;9.714;2023-04-03T11:32:21;1.10;;;1.00;;
10248;SDS011;5169;50.560;9.714;2023-04-03T11:34:58;1.27;;;1.00;;
10248;SDS011;5169;50.560;9.714;2023-04-03T11:37:38;1.27;;;1.13;;
10248;SDS011;5169;50.560;9.714;2023-04-03T11:40:12;1.10;;;0.93;;
10248;SDS011;5169;50.560;9.714;2023-04-03T11:42:52;1.63;;;1.20;;
10248;SDS011;5169;50.560;9.714;2023-04-03T11:45:33;1.60;;;1.27;;
10248;SDS011;5169;50.560;9.714;2023-04-03T11:48:09;2.37;;;1.30;;
10248;SDS011;5169;50.560;9.714;2023-04-03T11:51:41;1.20;;;1.03;;
10248;SDS011;5169;50.560;9.714;2023-04-03T11:53:55;2.60;;;1.40;;
10248;SDS011;5169;50.560;9.714;2023-04-03T11:57:22;1.97;;;1.03;;
10248;SDS011;5169;50.560;9.714;2023-04-03T12:08:43;1.30;;;0.90;;
10248;SDS011;5169;50.560;9.714;2023-04-03T12:14:20;0.67;;;0.67;;
10248;SDS011;5169;50.560;9.714;2023-04-03T12:29:23;3.80;;;0.83;;
10248;SDS011;5169;50.560;9.714;2023-04-03T12:45:40;0.97;;;0.87;;
10248;SDS011;5169;50.560;9.714;2023-04-03T12:48:16;3.27;;;1.30;;
10248;SDS011;5169;50.560;9.714;2023-04-03T12:50:46;1.13;;;0.93;;
10248;SDS011;5169;50.560;9.714;2023-04-03T12:53:25;2.17;;;1.03;;
10248;SDS011;5169;50.560;9.714;2023-04-03T12:56:18;1.87;;;1.00;;
10248;SDS011;5169;50.560;9.714;2023-04-03T12:58:55;2.07;;;0.90;;
10248;SDS011;5169;50.560;9.714;2023-04-03T13:01:41;2.20;;;0.90;;
10248;SDS011;5169;50.560;9.714;2023-04-03T13:04:07;2.80;;;0.97;;
10248;SDS011;5169;50.560;9.714;2023-04-03T13:06:39;1.97;;;0.90;;
10248;SDS011;5169;50.560;9.714;2023-04-03T13:09:22;3.53;;;0.90;;
10248;SDS011;5169;50.560;9.714;2023-04-03T13:12:03;0.90;;;0.87;;
10248;SDS011;5169;50.560;9.714;2023-04-03T13:14:36;1.33;;;0.70;;
10248;SDS011;5169;50.560;9.714;2023-04-03T13:17:16;1.37;;;0.80;;
10248;SDS011;5169;50.560;9.714;2023-04-03T13:19:43;1.40;;;1.10;;
10248;SDS011;5169;50.560;9.714;2023-04-03T13:25:08;1.53;;;0.97;;
10248;SDS011;5169;50.560;9.714;2023-04-03T13:27:38;0.80;;;0.80;;
10248;SDS011;5169;50.560;9.714;2023-04-03T13:30:17;1.20;;;0.97;;
10248;SDS011;5169;50.560;9.714;2023-04-03T13:32:55;1.20;;;1.10;;
10248;SDS011;5169;50.560;9.714;2023-04-03T13:35:39;2.77;;;1.00;;
10248;SDS011;5169;50.560;9.714;2023-04-03T13:38:28;1.30;;;0.90;;
10248;SDS011;5169;50.560;9.714;2023-04-03T13:40:54;2.50;;;1.37;;
10248;SDS011;5169;50.560;9.714;2023-04-03T13:43:25;1.57;;;1.20;;
10248;SDS011;5169;50.560;9.714;2023-04-03T13:48:48;1.60;;;1.00;;
10248;SDS011;5169;50.560;9.714;2023-04-03T13:51:17;1.90;;;1.00;;
10248;SDS011;5169;50.560;9.714;2023-04-03T13:53:57;1.80;;;1.10;;
10248;SDS011;5169;50.560;9.714;2023-04-03T13:56:36;2.90;;;1.30;;
10248;SDS011;5169;50.560;9.714;2023-04-03T14:04:17;1.43;;;1.33;;
10248;SDS011;5169;50.560;9.714;2023-04-03T14:06:51;1.77;;;1.27;;
10248;SDS011;5169;50.560;9.714;2023-04-03T14:09:17;2.60;;;1.67;;
10248;SDS011;5169;50.560;9.714;2023-04-03T14:11:44;2.70;;;1.20;;
10248;SDS011;5169;50.560;9.714;2023-04-03T14:14:18;3.97;;;1.10;;
10248;SDS011;5169;50.560;9.714;2023-04-03T14:16:56;1.20;;;0.97;;
10248;SDS011;5169;50.560;9.714;2023-04-03T14:19:28;1.60;;;1.00;;
10248;SDS011;5169;50.560;9.714;2023-04-03T14:21:57;2.57;;;1.10;;
10248;SDS011;5169;50.560;9.714;2023-04-03T14:24:24;1.00;;;0.90;;
10248;SDS011;5169;50.560;9.714;2023-04-03T14:26:53;3.30;;;1.17;;
10248;SDS011;5169;50.560;9.714;2023-04-03T14:29:20;2.43;;;0.97;;
10248;SDS011;5169;50.560;9.714;2023-04-03T14:31:47;1.63;;;1.00;;
10248;SDS011;5169;50.560;9.714;2023-04-03T14:34:14;1.30;;;1.17;;
10248;SDS011;5169;50.560;9.714;2023-04-03T14:36:41;1.77;;;1.10;;
10248;SDS011;5169;50.560;9.714;2023-04-03T14:39:10;2.43;;;1.63;;
10248;SDS011;5169;50.560;9.714;2023-04-03T14:41:42;2.17;;;1.00;;
10248;SDS011;5169;50.560;9.714;2023-04-03T14:44:10;1.50;;;1.00;;
10248;SDS011;5169;50.560;9.714;2023-04-03T14:46:41;2.03;;;1.50;;
10248;SDS011;5169;50.560;9.714;2023-04-03T14:49:12;1.27;;;1.03;;
10248;SDS011;5169;50.560;9.714;2023-04-03T14:52:01;1.60;;;1.50;;
10248;SDS011;5169;50.560;9.714;2023-04-03T14:54:27;1.10;;;1.00;;
10248;SDS011;5169;50.560;9.714;2023-04-03T14:56:54;1.20;;;1.10;;
10248;SDS011;5169;50.560;9.714;2023-04-03T14:59:21;5.50;;;1.00;;
10248;SDS011;5169;50.560;9.714;2023-04-03T15:01:48;0.80;;;0.80;;
10248;SDS011;5169;50.560;9.714;2023-04-03T15:04:15;2.67;;;1.10;;
10248;SDS011;5169;50.560;9.714;2023-04-03T15:06:46;1.67;;;1.10;;
10248;SDS011;5169;50.560;9.714;2023-04-03T15:09:22;0.80;;;0.80;;
10248;SDS011;5169;50.560;9.714;2023-04-03T15:11:50;1.50;;;1.30;;
10248;SDS011;5169;50.560;9.714;2023-04-03T15:14:21;1.70;;;1.20;;
10248;SDS011;5169;50.560;9.714;2023-04-03T15:16:48;2.87;;;1.50;;
10248;SDS011;5169;50.560;9.714;2023-04-03T15:19:16;2.07;;;1.20;;
10248;SDS011;5169;50.560;9.714;2023-04-03T15:21:42;1.50;;;1.17;;
10248;SDS011;5169;50.560;9.714;2023-04-03T15:24:08;2.03;;;1.07;;
10248;SDS011;5169;50.560;9.714;2023-04-03T15:26:34;2.53;;;1.20;;
10248;SDS011;5169;50.560;9.714;2023-04-03T15:29:02;1.97;;;1.20;;
10248;SDS011;5169;50.560;9.714;2023-04-03T15:31:28;1.10;;;0.90;;
10248;SDS011;5169;50.560;9.714;2023-04-03T15:33:56;1.90;;;1.10;;
10248;SDS011;5169;50.560;9.714;2023-04-03T15:36:22;4.27;;;1.10;;
10248;SDS011;5169;50.560;9.714;2023-04-03T15:38:47;1.53;;;1.00;;
10248;SDS011;5169;50.560;9.714;2023-04-03T15:41:15;1.93;;;1.10;;
10248;SDS011;5169;50.560;9.714;2023-04-03T15:43:41;1.40;;;0.90;;
10248;SDS011;5169;50.560;9.714;2023-04-03T15:46:08;2.70;;;1.00;;
10248;SDS011;5169;50.560;9.714;2023-04-03T15:48:35;1.20;;;0.83;;
10248;SDS011;5169;50.560;9.714;2023-04-03T15:51:01;1.50;;;1.33;;
10248;SDS011;5169;50.560;9.714;2023-04-03T15:53:29;2.67;;;1.20;;
10248;SDS011;5169;50.560;9.714;2023-04-03T15:55:55;2.23;;;1.27;;
10248;SDS011;5169;50.560;9.714;2023-04-03T15:58:21;1.27;;;0.93;;
10248;SDS011;5169;50.560;9.714;2023-04-03T16:00:46;2.10;;;1.17;;
10248;SDS011;5169;50.560;9.714;2023-04-03T16:03:14;5.90;;;2.03;;
10248;SDS011;5169;50.560;9.714;2023-04-03T16:05:41;2.77;;;1.80;;
10248;SDS011;5169;50.560;9.714;2023-04-03T16:08:07;2.20;;;1.37;;
10248;SDS011;5169;50.560;9.714;2023-04-03T16:10:36;1.40;;;0.87;;
10248;SDS011;5169;50.560;9.714;2023-04-03T16:13:02;2.67;;;1.83;;
10248;SDS011;5169;50.560;9.714;2023-04-03T16:15:28;1.40;;;1.30;;
10248;SDS011;5169;50.560;9.714;2023-04-03T16:17:55;1.67;;;1.53;;
10248;SDS011;5169;50.560;9.714;2023-04-03T16:20:23;2.43;;;1.43;;
10248;SDS011;5169;50.560;9.714;2023-04-03T16:22:49;2.73;;;2.40;;
10248;SDS011;5169;50.560;9.714;2023-04-03T16:25:15;3.73;;;1.67;;
10248;SDS011;5169;50.560;9.714;2023-04-03T16:27:40;1.83;;;1.57;;
10248;SDS011;5169;50.560;9.714;2023-04-03T16:30:06;2.40;;;1.80;;
10248;SDS011;5169;50.560;9.714;2023-04-03T16:32:35;4.23;;;1.83;;
10248;SDS011;5169;50.560;9.714;2023-04-03T16:35:02;2.80;;;1.67;;
10248;SDS011;5169;50.560;9.714;2023-04-03T16:37:28;3.90;;;1.90;;
10248;SDS011;5169;50.560;9.714;2023-04-03T16:39:55;2.43;;;1.80;;
10248;SDS011;5169;50.560;9.714;2023-04-03T16:42:23;2.23;;;1.80;;
10248;SDS011;5169;50.560;9.714;2023-04-03T16:44:54;1.77;;;1.30;;
10248;SDS011;5169;50.560;9.714;2023-04-03T16:47:19;2.00;;;1.70;;
10248;SDS011;5169;50.560;9.714;2023-04-03T16:49:47;4.63;;;1.33;;
10248;SDS011;5169;50.560;9.714;2023-04-03T16:52:13;1.33;;;1.00;;
10248;SDS011;5169;50.560;9.714;2023-04-03T16:54:39;1.70;;;1.20;;
10248;SDS011;5169;50.560;9.714;2023-04-03T16:57:05;2.53;;;1.60;;
10248;SDS011;5169;50.560;9.714;2023-04-03T16:59:31;2.67;;;2.07;;
10248;SDS011;5169;50.560;9.714;2023-04-03T17:01:56;2.30;;;1.37;;
10248;SDS011;5169;50.560;9.714;2023-04-03T17:04:22;3.70;;;1.60;;